Time;durP1;ratioP1;P1;durP2;ratioP2;P2;SDS_P1;SDS_P2;PMS_P1;PMS_P2;Temp;Humidity;BMP_temperature;BMP_pressure;BME280_temperature;BME280_humidity;BME280_pressure;Samples;Min_cycle;Max_cycle;Signal;HPM_P1;HPM_P2
2022/10/05 00:00:21;;;;;;;;;;;;;;;9.60;100.00;100803.50;4483668;31;35286;-82
2022/10/05 00:03:10;;;;;;;;;;;;;;;9.42;100.00;100804.88;4480019;31;34050;-83
2022/10/05 00:05:56;;;;;;;;;;;;;;;9.66;100.00;100807.03;4495793;31;35886;-82
2022/10/05 00:08:42;;;;;;;;;;;;;;;9.68;100.00;100802.13;4483742;31;34818;-81
2022/10/05 00:11:28;;;;;;;;;;;;;;;9.66;100.00;100805.12;4481436;31;35523;-82
2022/10/05 00:14:21;;;;;;;;;;;;;;;9.45;100.00;100800.78;4496136;31;34862;-83
2022/10/05 00:17:09;;;;;;;;;;;;;;;9.34;100.00;100805.44;4497076;31;34886;-82
2022/10/05 00:19:55;;;;;;;;;;;;;;;9.44;100.00;100802.69;4495977;31;35243;-83
2022/10/05 00:22:41;;;;;;;;;;;;;;;9.46;100.00;100794.22;4495716;31;35743;-82
2022/10/05 00:25:27;;;;;;;;;;;;;;;9.23;100.00;100793.66;4482384;31;35410;-82
2022/10/05 00:28:26;;;;;;;;;;;;;;;9.21;100.00;100790.38;4484158;31;35845;-82
2022/10/05 00:31:17;;;;;;;;;;;;;;;9.21;100.00;100792.31;4478919;31;34649;-82
2022/10/05 00:34:03;;;;;;;;;;;;;;;8.72;100.00;100784.62;4485651;31;34935;-81
2022/10/05 00:36:49;;;;;;;;;;;;;;;9.14;100.00;100789.03;4498872;31;34127;-83
2022/10/05 00:39:35;;;;;;;;;;;;;;;8.86;100.00;100791.19;4498382;31;34938;-82
2022/10/05 00:42:21;;;;;;;;;;;;;;;9.17;100.00;100792.03;4486537;31;36163;-82
2022/10/05 00:45:14;;;;;;;;;;;;;;;7.72;100.00;100792.94;4498291;31;34753;-81
2022/10/05 00:48:07;;;;;;;;;;;;;;;7.07;100.00;100795.72;4486682;31;34404;-82
2022/10/05 00:50:52;;;;;;;;;;;;;;;7.85;100.00;100803.34;4498302;31;34895;-82
2022/10/05 00:53:47;;;;;;;;;;;;;;;7.44;100.00;100795.75;4498280;31;35269;-82
2022/10/05 00:56:33;;;;;;;;;;;;;;;7.74;100.00;100798.94;4478708;31;34739;-81
2022/10/05 00:59:39;;;;;;;;;;;;;;;8.06;100.00;100790.66;4499738;31;33590;-82
2022/10/05 01:02:28;;;;;;;;;;;;;;;8.42;100.00;100791.62;4497978;31;34906;-82
2022/10/05 01:05:27;;;;;;;;;;;;;;;8.39;100.00;100794.91;4486678;31;34825;-82
2022/10/05 01:08:17;;;;;;;;;;;;;;;8.85;100.00;100791.44;4498637;31;34833;-82
2022/10/05 01:11:03;;;;;;;;;;;;;;;8.98;100.00;100790.94;4497206;31;34100;-81
2022/10/05 01:13:49;;;;;;;;;;;;;;;8.84;100.00;100798.84;4489662;31;35365;-82
2022/10/05 01:16:36;;;;;;;;;;;;;;;8.71;100.00;100796.66;4489200;31;35091;-82
2022/10/05 01:19:33;;;;;;;;;;;;;;;8.45;100.00;100806.66;4478035;31;34816;-82
2022/10/05 01:22:28;;;;;;;;;;;;;;;8.38;100.00;100801.44;4478224;31;32924;-82
2022/10/05 01:25:27;;;;;;;;;;;;;;;8.61;100.00;100810.28;4485351;31;34441;-82
2022/10/05 01:28:34;;;;;;;;;;;;;;;8.91;100.00;100815.81;4486694;31;35201;-82
2022/10/05 01:31:41;;;;;;;;;;;;;;;9.06;100.00;100819.66;4486469;31;34846;-82
2022/10/05 01:34:28;;;;;;;;;;;;;;;8.77;100.00;100814.69;4475325;31;34202;-82
2022/10/05 01:37:33;;;;;;;;;;;;;;;8.22;100.00;100821.56;4497822;31;35025;-82
2022/10/05 01:40:33;;;;;;;;;;;;;;;8.32;100.00;100829.81;4498545;31;34745;-82
2022/10/05 01:43:39;;;;;;;;;;;;;;;8.82;100.00;100824.78;4488126;31;34812;-82
2022/10/05 01:46:37;;;;;;;;;;;;;;;8.91;100.00;100817.72;4487747;31;34182;-82
2022/10/05 01:49:27;;;;;;;;;;;;;;;8.86;100.00;100821.25;4487589;31;35804;-82
2022/10/05 01:52:28;;;;;;;;;;;;;;;8.53;100.00;100815.16;4489608;31;36094;-83
2022/10/05 01:55:17;;;;;;;;;;;;;;;8.71;100.00;100815.78;4498821;31;34923;-83
2022/10/05 01:58:19;;;;;;;;;;;;;;;7.85;100.00;100819.72;4487387;31;34931;-82
2022/10/05 02:01:09;;;;;;;;;;;;;;;8.31;100.00;100818.06;4487131;31;35731;-82
2022/10/05 02:04:06;;;;;;;;;;;;;;;7.99;100.00;100826.34;4488493;31;33809;-82
2022/10/05 02:06:52;;;;;;;;;;;;;;;8.25;100.00;100824.59;4486846;31;35673;-81
2022/10/05 02:09:41;;;;;;;;;;;;;;;8.02;100.00;100830.47;4498375;31;33857;-82
2022/10/05 02:12:28;;;;;;;;;;;;;;;8.42;100.00;100838.06;4485969;31;35312;-82
2022/10/05 02:15:19;;;;;;;;;;;;;;;8.69;100.00;100839.81;4498476;31;35833;-82
2022/10/05 02:18:09;;;;;;;;;;;;;;;8.60;100.00;100838.69;4486642;31;34737;-82
2022/10/05 02:20:56;;;;;;;;;;;;;;;8.83;100.00;100838.19;4487682;31;34032;-82
2022/10/05 02:23:43;;;;;;;;;;;;;;;8.86;100.00;100834.91;4498549;31;34996;-81
2022/10/05 02:26:29;;;;;;;;;;;;;;;8.76;100.00;100834.88;4487620;31;33939;-82
2022/10/05 02:29:15;;;;;;;;;;;;;;;8.82;100.00;100846.66;4498237;31;35754;-82
2022/10/05 02:32:03;;;;;;;;;;;;;;;8.79;100.00;100839.81;4485992;31;33648;-82
2022/10/05 02:34:50;;;;;;;;;;;;;;;8.90;100.00;100838.75;4487431;31;34944;-82
2022/10/05 02:37:47;;;;;;;;;;;;;;;8.91;100.00;100837.66;4498765;31;35176;-82
2022/10/05 02:40:46;;;;;;;;;;;;;;;8.85;100.00;100844.22;4487734;31;33608;-82
2022/10/05 02:43:32;;;;;;;;;;;;;;;8.85;100.00;100838.75;4498040;31;34035;-82
2022/10/05 02:46:28;;;;;;;;;;;;;;;8.59;100.00;100839.75;4497807;31;34886;-82
2022/10/05 02:49:26;;;;;;;;;;;;;;;8.68;100.00;100843.59;4498102;31;35190;-82
2022/10/05 02:52:15;;;;;;;;;;;;;;;8.74;100.00;100837.91;4487022;31;35556;-81
2022/10/05 02:55:14;;;;;;;;;;;;;;;8.50;100.00;100844.91;4497763;31;34925;-82
2022/10/05 02:58:18;;;;;;;;;;;;;;;8.68;100.00;100849.91;4485469;31;35532;-82
2022/10/05 03:01:08;;;;;;;;;;;;;;;8.76;100.00;100840.34;4485697;31;35121;-82
2022/10/05 03:04:02;;;;;;;;;;;;;;;8.69;100.00;100848.00;4485328;31;34895;-82
2022/10/05 03:06:55;;;;;;;;;;;;;;;8.68;100.00;100843.59;4488486;31;33644;-82
2022/10/05 03:09:44;;;;;;;;;;;;;;;8.47;100.00;100840.00;4498113;31;34964;-82
2022/10/05 03:12:37;;;;;;;;;;;;;;;8.40;100.00;100840.25;4497544;31;35162;-81
2022/10/05 03:15:30;;;;;;;;;;;;;;;8.19;100.00;100830.28;4487260;31;34732;-81
2022/10/05 03:18:22;;;;;;;;;;;;;;;8.36;100.00;100827.34;4498489;31;34641;-82
2022/10/05 03:21:16;;;;;;;;;;;;;;;8.44;100.00;100824.97;4486228;31;34974;-81
2022/10/05 03:24:09;;;;;;;;;;;;;;;8.54;100.00;100816.81;4497191;31;35293;-82
2022/10/05 03:27:13;;;;;;;;;;;;;;;8.76;100.00;100811.09;4483549;31;34413;-81
2022/10/05 03:30:12;;;;;;;;;;;;;;;8.85;100.00;100816.03;4480401;31;34852;-82
2022/10/05 03:33:13;;;;;;;;;;;;;;;8.82;100.00;100813.84;4485809;31;34545;-82
2022/10/05 03:36:02;;;;;;;;;;;;;;;7.62;100.00;100813.59;4486989;31;35258;-82
2022/10/05 03:38:58;;;;;;;;;;;;;;;7.05;100.00;100825.12;4485362;31;34897;-81
2022/10/05 03:41:50;;;;;;;;;;;;;;;6.97;100.00;100822.88;4486039;31;34120;-82
2022/10/05 03:44:42;;;;;;;;;;;;;;;7.56;100.00;100822.81;4485522;31;34819;-82
2022/10/05 03:47:35;;;;;;;;;;;;;;;7.48;100.00;100826.03;4487331;31;35182;-81
2022/10/05 03:50:24;;;;;;;;;;;;;;;6.36;100.00;100833.94;4487181;31;34831;-81
2022/10/05 03:53:18;;;;;;;;;;;;;;;6.47;100.00;100834.88;4474958;31;34875;-82
2022/10/05 03:56:06;;;;;;;;;;;;;;;7.13;100.00;100838.28;4485622;31;35486;-82
2022/10/05 03:58:54;;;;;;;;;;;;;;;7.11;100.00;100845.91;4497435;31;36116;-82
2022/10/05 04:01:46;;;;;;;;;;;;;;;7.77;100.00;100851.09;4475168;31;34338;-82
2022/10/05 04:04:33;;;;;;;;;;;;;;;7.68;100.00;100840.91;4485464;31;34943;-82
2022/10/05 04:07:32;;;;;;;;;;;;;;;7.68;100.00;100844.44;4496525;31;34317;-82
2022/10/05 04:10:24;;;;;;;;;;;;;;;8.10;100.00;100843.63;4487346;31;35644;-82
2022/10/05 04:13:10;;;;;;;;;;;;;;;8.15;100.00;100846.38;4498743;31;35682;-82
2022/10/05 04:16:05;;;;;;;;;;;;;;;7.84;100.00;100839.94;4499305;31;34799;-82
2022/10/05 04:19:02;;;;;;;;;;;;;;;7.80;100.00;100844.28;4488303;31;33680;-82
2022/10/05 04:21:56;;;;;;;;;;;;;;;7.70;100.00;100844.19;4487031;31;34951;-82
2022/10/05 04:24:47;;;;;;;;;;;;;;;8.11;100.00;100850.72;4487967;31;34762;-84
2022/10/05 04:27:35;;;;;;;;;;;;;;;8.20;100.00;100854.59;4497380;31;34970;-84
2022/10/05 04:30:21;;;;;;;;;;;;;;;7.94;100.00;100853.66;4486232;31;34521;-84
2022/10/05 04:33:08;;;;;;;;;;;;;;;8.09;100.00;100848.25;4484882;31;34868;-84
2022/10/05 04:36:04;;;;;;;;;;;;;;;8.24;100.00;100846.69;4486097;31;34808;-83
2022/10/05 04:38:56;;;;;;;;;;;;;;;8.19;100.00;100846.66;4486974;31;34839;-85
2022/10/05 04:41:46;;;;;;;;;;;;;;;7.65;100.00;100853.97;4484675;31;35494;-85
2022/10/05 04:44:51;;;;;;;;;;;;;;;7.53;100.00;100849.81;4496992;31;36278;-84
2022/10/05 04:48:06;;;;;;;;;;;;;;;7.71;100.00;100857.56;4498134;31;36423;-83
2022/10/05 04:51:12;;;;;;;;;;;;;;;7.69;100.00;100851.56;4494478;31;34064;-85
2022/10/05 04:54:04;;;;;;;;;;;;;;;7.80;100.00;100861.47;4492049;31;35810;-79
2022/10/05 04:56:55;;;;;;;;;;;;;;;7.95;100.00;100859.91;4491180;31;36149;-79
2022/10/05 04:59:43;;;;;;;;;;;;;;;8.14;100.00;100860.28;4488134;31;34676;-79
2022/10/05 05:02:34;;;;;;;;;;;;;;;8.21;100.00;100853.50;4502848;31;34998;-79
2022/10/05 05:05:28;;;;;;;;;;;;;;;8.01;100.00;100850.69;4491334;31;35014;-79
2022/10/05 05:08:30;;;;;;;;;;;;;;;7.69;100.00;100850.75;4501921;31;36115;-81
2022/10/05 05:11:33;;;;;;;;;;;;;;;7.82;100.00;100853.00;4489051;31;34896;-82
2022/10/05 05:14:26;;;;;;;;;;;;;;;7.77;100.00;100856.53;4490788;31;34158;-84
2022/10/05 05:17:16;;;;;;;;;;;;;;;7.67;100.00;100851.00;4502688;31;34979;-82
2022/10/05 05:20:19;;;;;;;;;;;;;;;7.79;100.00;100853.53;4490441;31;36152;-83
2022/10/05 05:23:09;;;;;;;;;;;;;;;7.57;100.00;100851.75;4490376;31;35585;-88
2022/10/05 05:26:07;;;;;;;;;;;;;;;7.75;100.00;100855.16;4481901;31;34031;-85
2022/10/05 05:29:13;;;;;;;;;;;;;;;7.52;100.00;100851.72;4479582;31;34861;-83
2022/10/05 05:32:03;;;;;;;;;;;;;;;8.00;100.00;100860.78;4502450;31;35181;-89
2022/10/05 05:34:55;;;;;;;;;;;;;;;7.56;100.00;100855.56;4490848;31;34954;-89
2022/10/05 05:37:44;;;;;;;;;;;;;;;6.08;100.00;100862.16;4503743;31;34271;-86
2022/10/05 05:40:30;;;;;;;;;;;;;;;6.40;100.00;100869.62;4491445;31;34976;-86
2022/10/05 05:43:27;;;;;;;;;;;;;;;6.61;100.00;100868.81;4505462;31;35234;-86
2022/10/05 05:46:14;;;;;;;;;;;;;;;6.51;100.00;100876.84;4491603;31;34818;-86
2022/10/05 05:49:02;;;;;;;;;;;;;;;5.77;100.00;100888.03;4503370;31;34157;-86
2022/10/05 05:51:53;;;;;;;;;;;;;;;6.52;100.00;100879.34;4491469;31;35225;-84
2022/10/05 05:54:41;;;;;;;;;;;;;;;6.63;100.00;100885.75;4490582;31;36114;-83
2022/10/05 05:57:28;;;;;;;;;;;;;;;6.40;100.00;100902.31;4502642;31;34935;-84
2022/10/05 06:00:19;;;;;;;;;;;;;;;6.66;100.00;100896.12;4479484;31;34046;-81
2022/10/05 06:03:18;;;;;;;;;;;;;;;7.58;100.00;100904.41;4468851;31;36150;-82
2022/10/05 06:06:31;;;;;;;;;;;;;;;7.80;100.00;100909.75;4491884;31;35118;-88
2022/10/05 06:09:17;;;;;;;;;;;;;;;8.00;100.00;100901.72;4500096;31;34987;-90
2022/10/05 06:12:27;;;;;;;;;;;;;;;8.27;100.00;100911.69;4495262;31;34371;-89
2022/10/05 06:15:13;;;;;;;;;;;;;;;8.27;100.00;100914.44;4501921;31;34883;-83
2022/10/05 06:18:01;;;;;;;;;;;;;;;8.51;100.00;100918.44;4501375;31;35291;-82
2022/10/05 06:20:50;;;;;;;;;;;;;;;8.26;100.00;100940.91;4490225;31;34893;-82
2022/10/05 06:23:56;;;;;;;;;;;;;;;7.02;100.00;100956.44;4490124;31;34038;-82
2022/10/05 06:26:59;;;;;;;;;;;;;;;7.43;100.00;100955.00;4501728;31;34926;-84
2022/10/05 06:29:44;;;;;;;;;;;;;;;8.38;100.00;100954.38;4502162;31;35242;-85
2022/10/05 06:32:40;;;;;;;;;;;;;;;8.84;100.00;100951.87;4501317;31;34948;-84
2022/10/05 06:39:48;;;;;;;;;;;;;;;8.96;100.00;100955.19;4495618;31;35886;-85
2022/10/05 06:42:58;;;;;;;;;;;;;;;9.03;100.00;100968.63;4493548;31;35748;-85
2022/10/05 06:45:51;;;;;;;;;;;;;;;9.06;100.00;100964.56;4486392;31;33236;-85
2022/10/05 06:48:48;;;;;;;;;;;;;;;9.42;100.00;100977.22;4498767;31;33380;-85
2022/10/05 06:51:55;;;;;;;13.57;5.10;;;;;;;9.65;100.00;100975.09;4488878;31;34953;-85
2022/10/05 06:54:45;;;;;;;8.10;5.25;;;;;;;9.34;100.00;100980.50;4496986;31;34471;-85
2022/10/05 06:57:59;;;;;;;14.80;5.80;;;;;;;9.51;100.00;100977.53;4481851;31;34240;-85
2022/10/05 07:00:52;;;;;;;11.40;5.78;;;;;;;10.20;100.00;100987.13;4486529;31;32154;-85
2022/10/05 07:03:57;;;;;;;12.60;7.25;;;;;;;9.62;100.00;100984.66;4477234;31;34560;-84
2022/10/05 07:06:51;;;;;;;12.50;5.75;;;;;;;10.03;100.00;100992.06;4495416;31;34593;-85
2022/10/05 07:10:15;;;;;;;11.48;6.53;;;;;;;10.39;100.00;100992.87;4486763;31;34824;-85
2022/10/05 07:13:40;;;;;;;11.43;6.50;;;;;;;10.90;100.00;100997.38;4448981;32;34520;-85
2022/10/05 07:17:05;;;;;;;9.70;5.60;;;;;;;11.22;100.00;100994.25;4495949;31;36211;-86
2022/10/05 07:20:18;;;;;;;14.00;6.43;;;;;;;11.19;100.00;100992.87;4458505;32;35303;-86
2022/10/05 07:23:23;;;;;;;10.93;5.75;;;;;;;11.56;100.00;100985.28;4448264;32;34981;-86
2022/10/05 07:26:31;;;;;;;14.13;6.57;;;;;;;11.76;100.00;100981.56;4494752;31;35166;-86
2022/10/05 07:29:27;;;;;;;18.58;6.93;;;;;;;11.47;100.00;100974.91;4485109;31;35042;-86
2022/10/05 07:32:30;;;;;;;12.48;7.00;;;;;;;12.21;100.00;100983.13;4487081;31;34972;-85
2022/10/05 07:38:31;;;;;;;11.40;5.72;;;;;;;11.02;100.00;100989.69;4495507;31;34210;-86
2022/10/05 07:41:24;;;;;;;11.88;6.62;;;;;;;12.10;100.00;100985.16;4481638;31;35588;-86
2022/10/05 07:44:26;;;;;;;11.48;6.45;;;;;;;12.45;100.00;100983.16;4482096;31;36017;-86
2022/10/05 07:47:40;;;;;;;15.32;6.55;;;;;;;12.83;100.00;100986.03;4496717;31;34650;-85
2022/10/05 07:50:35;;;;;;;15.15;6.68;;;;;;;13.11;99.86;100984.31;4485066;31;34053;-85
2022/10/05 07:53:27;;;;;;;14.05;6.45;;;;;;;13.07;98.99;100987.97;4495676;31;34473;-85
2022/10/05 07:56:20;;;;;;;11.85;6.10;;;;;;;13.18;98.48;100981.22;4486146;31;33036;-85
2022/10/05 07:59:54;;;;;;;14.75;6.40;;;;;;;13.43;96.93;100980.91;4487244;31;35866;-85
2022/10/05 08:02:51;;;;;;;16.60;6.93;;;;;;;13.87;94.81;100981.63;4487772;31;35420;-85
2022/10/05 08:05:39;;;;;;;;;;;;;;;13.68;95.45;100987.94;4481093;31;34595;-85
2022/10/05 08:08:47;;;;;;;;;;;;;;;14.08;95.50;100991.16;4489262;31;34676;-85
2022/10/05 08:11:42;;;;;;;13.15;6.65;;;;;;;14.45;93.46;100988.59;4485344;31;35713;-85
2022/10/05 08:14:57;;;;;;;13.23;7.97;;;;;;;14.47;93.73;100998.22;4488493;31;34970;-85
2022/10/05 08:17:59;;;;;;;13.90;8.30;;;;;;;14.76;92.87;100999.91;4489327;31;35578;-85
2022/10/05 08:20:52;;;;;;;17.02;7.45;;;;;;;14.78;91.89;100990.19;4479465;31;34482;-84
2022/10/05 08:23:41;;;;;;;;;;;;;;;15.19;91.02;100986.59;4495364;31;34047;-85
2022/10/05 08:26:31;;;;;;;;;;;;;;;15.63;91.45;100990.59;4500421;31;33714;-84
2022/10/05 08:29:31;;;;;;;;;;;;;;;15.34;90.96;100981.84;4481736;31;35397;-84
2022/10/05 08:32:20;;;;;;;;;;;;;;;15.67;89.36;100966.72;4488447;31;33877;-84
2022/10/05 08:35:24;;;;;;;;;;;;;;;15.85;88.01;100961.34;4486640;31;34794;-84
2022/10/05 08:38:17;;;;;;;;;;;;;;;15.77;85.29;100967.62;4477056;31;33685;-83
2022/10/05 08:41:22;;;;;;;;;;;;;;;15.63;87.09;100974.00;4487568;31;34294;-84
2022/10/05 08:44:11;;;;;;;;;;;;;;;15.81;85.53;100958.41;4485870;31;34538;-84
2022/10/05 08:47:04;;;;;;;;;;;;;;;16.03;83.76;100965.87;4498728;31;34497;-84
2022/10/05 08:50:09;;;;;;;;;;;;;;;16.19;84.44;100969.88;4497242;31;35038;-85
2022/10/05 08:53:14;;;;;;;;;;;;;;;16.49;82.10;100939.75;4497495;31;34617;-84
2022/10/05 08:56:03;;;;;;;;;;;;;;;16.41;82.69;100948.84;4497696;31;34072;-84
2022/10/05 08:58:56;;;;;;;;;;;;;;;16.09;82.01;100948.03;4498278;31;34477;-84
2022/10/05 09:02:03;;;;;;;;;;;;;;;16.53;79.98;100951.81;4486180;31;34172;-84
2022/10/05 09:04:50;;;;;;;;;;;;;;;16.30;81.78;100948.28;4483595;31;34500;-84
2022/10/05 09:07:39;;;;;;;;;;;;;;;16.61;80.08;100953.81;4498296;31;34724;-85
2022/10/05 09:11:01;;;;;;;10.52;5.80;;;;;;;15.68;84.77;100960.09;4489648;31;34486;-84
2022/10/05 09:14:07;;;;;;;;;;;;;;;16.87;80.63;100969.72;4481876;31;33837;-84
2022/10/05 09:17:10;;;;;;;;;;;;;;;16.70;80.09;100966.84;4495416;31;35003;-84
2022/10/05 09:19:59;;;;;;;;;;;;;;;17.42;77.20;100968.38;4484125;31;36113;-84
2022/10/05 09:22:54;;;;;;;;;;;;;;;17.83;75.52;100975.41;4495753;31;35409;-84
2022/10/05 09:25:42;;;;;;;;;;;;;;;17.68;75.45;100979.47;4496031;31;35231;-84
2022/10/05 09:28:30;;;;;;;;;;;;;;;18.34;75.54;100971.72;4496536;31;34944;-84
2022/10/05 09:31:25;;;;;;;;;;;;;;;18.71;71.22;100982.37;4498079;31;34053;-84
2022/10/05 09:34:35;;;;;;;;;;;;;;;19.29;67.52;100986.31;4485966;31;35716;-84
2022/10/05 09:37:21;;;;;;;;;;;;;;;19.45;64.97;100981.00;4498303;31;34466;-84
2022/10/05 09:40:10;;;;;;;;;;;;;;;17.61;67.56;100973.59;4486185;31;34934;-85
2022/10/05 09:43:08;;;;;;;;;;;;;;;19.48;64.81;100983.91;4495657;31;35221;-84
2022/10/05 09:45:55;;;;;;;;;;;;;;;19.54;61.79;100978.94;4473834;31;34773;-84
2022/10/05 09:48:46;;;;;;;;;;;;;;;19.62;65.78;100986.41;4496683;31;34861;-84
2022/10/05 09:51:45;;;;;;;;;;;;;;;20.56;59.71;100980.28;4496291;31;33671;-84
2022/10/05 09:54:49;;;;;;;;;;;;;;;21.31;57.74;100968.75;4483748;31;36242;-84
2022/10/05 09:57:41;;;;;;;;;;;;;;;21.24;56.03;100967.75;4497192;31;34532;-84
2022/10/05 10:00:45;;;;;;;;;;;;;;;18.32;64.76;100970.41;4485785;31;34124;-85
2022/10/05 10:03:51;;;;;;;;;;;;;;;18.31;66.56;100968.81;4498266;31;35768;-85
2022/10/05 10:06:37;;;;;;;;;;;;;;;18.82;64.40;100967.81;4497148;31;35346;-84
2022/10/05 10:09:25;;;;;;;;;;;;;;;18.25;66.00;100970.13;4496746;31;35627;-85
2022/10/05 10:12:11;;;;;;;;;;;;;;;18.27;68.59;100967.81;4487119;31;33817;-85
2022/10/05 10:15:17;;;;;;;;;;;;;;;18.10;73.04;100968.66;4495152;31;35007;-84
2022/10/05 10:18:22;;;;;;;;;;;;;;;19.45;64.19;100962.34;4497119;31;35255;-85
2022/10/05 10:21:47;;;;;;;;;;;;;;;18.10;68.64;100963.13;4497585;31;34985;-84
2022/10/05 10:24:34;;;;;;;;;;;;;;;19.98;63.50;100971.09;4428295;32;34071;-84
2022/10/05 10:27:39;;;;;;;;;;;;;;;20.47;61.94;100959.25;4428313;32;34496;-84
2022/10/05 10:30:31;;;;;;;;;;;;;;;21.60;55.51;100952.09;4486174;31;35141;-84
2022/10/05 10:33:26;;;;;;;;;;;;;;;20.21;58.00;100958.41;4488201;31;35015;-85
2022/10/05 10:36:16;;;;;;;;;;;;;;;19.68;61.01;100973.97;4483456;31;34119;-82
2022/10/05 10:39:05;;;;;;;;;;;;;;;21.21;57.33;100969.25;4484043;31;34861;-84
2022/10/05 10:42:11;;;;;;;;;;;;;;;21.29;55.72;100954.38;4484138;31;35107;-84
2022/10/05 10:45:15;;;;;;;;;;;;;;;20.95;55.38;100955.72;4496887;31;34619;-84
2022/10/05 10:48:03;;;;;;;;;;;;;;;19.75;62.32;100965.91;4495554;31;34105;-89
2022/10/05 10:50:55;;;;;;;;;;;;;;;18.71;64.65;100966.53;4486208;31;34926;-88
2022/10/05 10:54:02;;;;;;;;;;;;;;;17.54;69.99;100969.34;4483768;31;34969;-89
2022/10/05 10:56:57;;;;;;;;;;;;;;;18.50;67.66;100962.84;4494889;31;34629;-87
2022/10/05 10:59:46;;;;;;;;;;;;;;;19.67;63.40;100969.56;4490974;31;33847;-87
2022/10/05 11:02:36;;;;;;;;;;;;;;;19.64;64.75;100964.66;4492436;31;34858;-84
2022/10/05 11:05:37;;;;;;;;;;;;;;;19.89;63.78;100962.00;4491543;31;34498;-87
2022/10/05 11:08:42;;;;;;;;;;;;;;;20.00;61.88;100965.97;4480445;31;34235;-87
2022/10/05 11:11:29;;;;;;;;;;;;;;;19.81;64.50;100968.44;4492076;31;33981;-86
2022/10/05 11:14:34;;;;;;;;;;;;;;;19.72;63.79;100966.56;4491723;31;34513;-88
2022/10/05 11:17:30;;;;;;;;;;;;;;;19.31;65.59;100957.03;4491696;31;34851;-84
2022/10/05 11:20:26;;;;;;;;;;;;;;;19.62;66.06;100953.03;4491337;31;35526;-88
2022/10/05 11:23:26;;;;;;;;;;;;;;;18.93;67.68;100951.59;4491056;31;33530;-92
2022/10/05 11:26:18;;;;;;;;;;;;;;;19.48;66.91;100955.28;4447690;31;919664;-84
2022/10/05 11:29:29;;;;;;;;;;;;;;;19.56;66.58;100946.06;4489086;31;34916;-85
2022/10/05 11:32:24;;;;;;;;;;;;;;;19.85;66.56;100955.50;4480184;31;34259;-86
2022/10/05 11:35:13;;;;;;;;;;;;;;;20.04;65.82;100950.25;4490019;31;33541;-86
2022/10/05 11:37:59;;;;;;;;;;;;;;;20.38;65.32;100942.66;4491555;31;34706;-84
2022/10/05 11:40:54;;;;;;;;;;;;;;;20.60;63.05;100928.31;4481626;31;34834;-86
2022/10/05 11:43:59;;;;;;;;;;;;;;;20.96;57.93;100923.88;4492686;31;34644;-86
2022/10/05 11:46:51;;;;;;;;;;;;;;;20.76;59.90;100922.06;4497000;31;33533;-87
2022/10/05 11:49:58;;;;;;;;;;;;;;;18.69;66.06;100921.63;4495352;31;35492;-86
2022/10/05 11:52:50;;;;;;;;;;;;;;;18.92;64.51;100915.81;4492885;31;35244;-86
2022/10/05 11:55:56;;;;;;;;;;;;;;;19.69;64.38;100922.75;4482175;31;32520;-85
2022/10/05 11:58:46;;;;;;;;;;;;;;;20.12;63.27;100918.72;4492561;31;35013;-85
2022/10/05 12:01:36;;;;;;;;;;;;;;;20.60;59.73;100917.16;4483987;31;33175;-87
2022/10/05 12:04:29;;;;;;;;;;;;;;;20.69;59.39;100905.94;4480140;31;34809;-87
2022/10/05 12:07:18;;;;;;;;;;;;;;;19.83;57.52;100913.31;4491271;31;33659;-85
2022/10/05 12:10:15;;;;;;;;;;;;;;;19.70;60.19;100899.38;4484014;31;33391;-89
2022/10/05 12:13:23;;;;;;;;;;;;;;;19.43;61.33;100899.91;4493766;31;35403;-86
2022/10/05 12:16:16;;;;;;;;;;;;;;;19.42;58.51;100896.31;4476540;31;33376;-85
2022/10/05 12:19:03;;;;;;;;;;;;;;;18.94;63.40;100897.66;4478766;31;35050;-85
2022/10/05 12:21:55;;;;;;;;;;;;;;;19.86;57.52;100899.50;4491001;31;34032;-86
2022/10/05 12:24:46;;;;;;;;;;;;;;;19.39;58.90;100890.63;4491923;31;34951;-87
2022/10/05 12:27:35;;;;;;;;;;;;;;;18.58;60.13;100896.19;4491481;31;35917;-88
2022/10/05 12:30:27;;;;;;;;;;;;;;;18.05;61.80;100888.44;4479191;31;35371;-87
2022/10/05 12:33:17;;;;;;;;;;;;;;;18.75;61.86;100891.72;4494212;31;34929;-84
2022/10/05 12:36:20;;;;;;;;;;;;;;;19.26;57.00;100898.88;4494048;31;34398;-86
2022/10/05 12:39:18;;;;;;;;;;;;;;;19.28;59.09;100896.59;4482388;31;33535;-87
2022/10/05 12:42:24;;;;;;;;;;;;;;;19.03;57.94;100887.28;4494051;31;35200;-88
2022/10/05 12:45:10;;;;;;;;;;;;;;;18.83;57.71;100879.75;4493710;31;35108;-86
2022/10/05 12:48:35;;;;;;;;;;;;;;;19.38;58.39;100886.22;4493390;31;35262;-86
2022/10/05 12:51:27;;;;;;;;;;;;;;;20.45;56.15;100873.28;4425200;32;34628;-85
2022/10/05 12:54:13;;;;;;;;;;;;;;;19.68;53.48;100868.31;4424545;32;33176;-87
2022/10/05 12:57:08;;;;;;;;;;;;;;;19.70;54.81;100876.31;4487380;31;33661;-86
2022/10/05 13:00:07;;;;;;;;;;;;;;;20.19;54.18;100870.84;4493775;31;33473;-85
2022/10/05 13:02:56;;;;;;;;;;;;;;;21.14;52.84;100860.34;4482690;31;35949;-85
2022/10/05 13:05:43;;;;;;;;;;;;;;;21.55;49.58;100853.59;4492989;31;34247;-86
2022/10/05 13:08:32;;;;;;;;;;;;;;;21.60;48.36;100863.69;4493981;31;34573;-86
2022/10/05 13:11:27;;;;;;;;;;;;;;;21.90;47.98;100861.31;4493415;31;36138;-85
2022/10/05 13:14:17;;;;;;;;;;;;;;;22.58;45.75;100862.25;4493779;31;33682;-86
2022/10/05 13:17:09;;;;;;;;;;;;;;;21.45;50.43;100856.09;4472720;31;35458;-84
2022/10/05 13:19:56;;;;;;;;;;;;;;;22.33;47.58;100861.63;4481658;31;33577;-87
2022/10/05 13:22:42;;;;;;;;;;;;;;;22.19;47.50;100850.91;4480830;31;34811;-87
2022/10/05 13:25:30;;;;;;;;;;;;;;;22.56;46.18;100859.00;4483708;31;34582;-86
2022/10/05 13:28:18;;;;;;;;;;;;;;;21.94;48.58;100850.22;4481730;31;34848;-85
2022/10/05 13:31:05;;;;;;;;;;;;;;;21.95;47.31;100846.28;4484459;31;33742;-86
2022/10/05 13:34:04;;;;;;;;;;;;;;;20.79;52.70;100851.72;4484673;31;33314;-86
2022/10/05 13:36:59;;;;;;;;;;;;;;;21.44;50.05;100849.69;4493555;31;34617;-87
2022/10/05 13:39:45;;;;;;;;;;;;;;;21.45;50.76;100839.34;4481036;31;35315;-86
2022/10/05 13:42:52;;;;;;;;;;;;;;;21.68;52.35;100842.38;4493593;31;34911;-86
2022/10/05 13:45:40;;;;;;;;;;;;;;;21.96;49.14;100842.31;4493560;31;34312;-86
2022/10/05 13:48:29;;;;;;;;;;;;;;;21.66;50.51;100839.12;4483887;31;36116;-86
2022/10/05 13:51:45;;;;;;;;;;;;;;;22.09;47.94;100831.91;4495407;31;34349;-85
2022/10/05 13:54:36;;;;;;;;;;;;;;;21.78;49.61;100844.66;4493036;31;32412;-84
2022/10/05 13:57:21;;;;;;;;;;;;;;;21.15;52.23;100838.88;4482221;31;34796;-87
2022/10/05 14:00:15;;;;;;;;;;;;;;;21.78;50.56;100842.66;4485048;31;34871;-86
2022/10/05 14:03:01;;;;;;;;;;;;;;;21.29;50.11;100840.09;4485966;31;34839;-85
2022/10/05 14:05:56;;;;;;;;;;;;;;;20.57;51.33;100842.69;4496486;31;32976;-86
2022/10/05 14:08:47;;;;;;;;;;;;;;;19.81;57.30;100837.75;4486310;31;35014;-85
2022/10/05 14:11:33;;;;;;;;;;;;;;;20.56;53.14;100831.91;4486600;31;35207;-86
2022/10/05 14:14:29;;;;;;;;;;;;;;;20.59;54.78;100843.16;4485543;31;34771;-86
2022/10/05 14:17:35;;;;;;;;;;;;;;;20.48;53.45;100841.16;4488076;31;34592;-86
2022/10/05 14:20:22;;;;;;;;;;;;;;;20.88;53.24;100846.81;4497382;31;35560;-86
2022/10/05 14:23:14;;;;;;;;;;;;;;;20.71;53.21;100844.31;4487534;31;35098;-85
2022/10/05 14:26:16;;;;;;;;;;;;;;;21.39;52.00;100840.78;4487293;31;33817;-86
2022/10/05 14:29:16;;;;;;;;;;;;;;;21.18;53.24;100846.53;4497052;31;34081;-86
2022/10/05 14:32:13;;;;;;;;;;;;;;;21.12;52.89;100852.34;4480692;31;35774;-86
2022/10/05 14:35:04;;;;;;;;;;;;;;;20.91;54.39;100846.13;4497728;31;35238;-86
2022/10/05 14:37:54;;;;;;;;;;;;;;;21.16;54.35;100844.09;4487265;31;34954;-86
2022/10/05 14:40:40;;;;;;;;;;;;;;;21.58;53.38;100849.28;4483806;31;35213;-86
2022/10/05 14:43:27;;;;;;;;;;;;;;;21.68;53.05;100847.94;4497594;31;34627;-86
2022/10/05 14:46:18;;;;;;;;;;;;;;;21.29;53.44;100848.47;4485128;31;35790;-86
2022/10/05 14:49:24;;;;;;;;;;;;;;;21.36;52.30;100835.88;4487982;31;34892;-86
2022/10/05 14:52:42;;;;;;;;;;;;;;;21.18;54.08;100840.97;4485245;31;34146;-86
2022/10/05 14:55:54;;;;;;;;;;;;;;;21.18;54.79;100838.16;4473323;31;33487;-86